Time;durP1;ratioP1;P1;durP2;ratioP2;P2;SDS_P1;SDS_P2;PMS_P1;PMS_P2;Temp;Humidity;BMP_temperature;BMP_pressure;BME280_temperature;BME280_humidity;BME280_pressure;Samples;Min_cycle;Max_cycle;Signal;HPM_P1;HPM_P2
2022/09/04 00:02:36;;;;;;;3.20;3.00;;;19.40;99.90;;;;;;5014521;28;20037;-69
2022/09/04 00:05:26;;;;;;;3.05;2.75;;;19.30;99.90;;;;;;5014459;28;20018;-71
2022/09/04 00:08:13;;;;;;;2.90;2.70;;;19.20;99.90;;;;;;5014411;28;20072;-71
2022/09/04 00:11:17;;;;;;;3.10;2.80;;;19.20;99.90;;;;;;5013983;28;20030;-71
2022/09/04 00:14:24;;;;;;;2.65;2.45;;;19.30;99.90;;;;;;5014550;28;20030;-70
2022/09/04 00:17:04;;;;;;;2.38;2.17;;;19.40;99.90;;;;;;4919927;28;20041;-70
2022/09/04 00:19:38;;;;;;;1.98;1.88;;;19.40;99.90;;;;;;5014034;28;20021;-72
2022/09/04 00:22:26;;;;;;;2.13;2.03;;;19.50;99.90;;;;;;5014132;28;20472;-70
2022/09/04 00:25:21;;;;;;;2.75;2.00;;;19.50;99.90;;;;;;5014144;28;20097;-70
2022/09/04 00:27:52;;;;;;;4.07;2.38;;;19.50;99.90;;;;;;5004812;28;20112;-70
2022/09/04 00:30:20;;;;;;;2.00;1.90;;;19.40;99.90;;;;;;5014065;28;20029;-70
2022/09/04 00:33:03;;;;;;;3.80;2.58;;;19.40;99.90;;;;;;5014371;28;20065;-73
2022/09/04 00:35:37;;;;;;;2.45;2.30;;;19.40;99.90;;;;;;5013936;28;20025;-68
2022/09/04 00:38:14;;;;;;;2.33;2.13;;;19.40;99.90;;;;;;5013870;28;20141;-70
2022/09/04 00:41:17;;;;;;;2.53;2.33;;;19.40;99.90;;;;;;5013948;28;20116;-70
2022/09/04 00:44:10;;;;;;;2.20;2.10;;;19.40;99.90;;;;;;4996171;28;20384;-71
2022/09/04 00:47:07;;;;;;;2.25;2.15;;;19.40;99.90;;;;;;4996276;28;20026;-71
2022/09/04 00:50:03;;;;;;;2.90;2.22;;;19.40;99.90;;;;;;5013733;28;20388;-73
2022/09/04 00:52:44;;;;;;;2.60;2.00;;;19.40;99.90;;;;;;5013746;28;20498;-71
2022/09/04 00:55:45;;;;;;;1.92;1.83;;;19.40;99.90;;;;;;5018831;28;20128;-71
2022/09/04 00:58:41;;;;;;;2.08;1.90;;;19.40;99.90;;;;;;5033583;28;20025;-73
2022/09/04 01:01:14;;;;;;;2.08;1.98;;;19.40;99.90;;;;;;5015672;28;20049;-68
2022/09/04 01:03:42;;;;;;;1.83;1.73;;;19.40;99.90;;;;;;5015963;28;20026;-72
2022/09/04 01:06:19;;;;;;;3.25;2.05;;;19.40;99.90;;;;;;5033339;28;20538;-71
2022/09/04 01:09:06;;;;;;;2.28;2.10;;;19.40;99.90;;;;;;5033411;28;20079;-70
2022/09/04 01:11:40;;;;;;;1.85;1.75;;;19.40;99.90;;;;;;5033090;28;20426;-69
2022/09/04 01:14:09;;;;;;;2.03;1.83;;;19.50;99.90;;;;;;5015581;28;20431;-70
2022/09/04 01:16:53;;;;;;;2.20;1.77;;;19.40;99.90;;;;;;5033328;28;20060;-71
2022/09/04 01:19:54;;;;;;;2.10;1.88;;;19.40;99.90;;;;;;5033126;28;20471;-71
2022/09/04 01:22:23;;;;;;;3.47;3.10;;;19.40;99.90;;;;;;5033566;28;20116;-69
2022/09/04 01:24:57;;;;;;;2.00;1.90;;;19.30;99.90;;;;;;5019460;28;20025;-72
2022/09/04 01:27:50;;;;;;;2.65;2.15;;;19.30;99.90;;;;;;5037022;28;20563;-70
2022/09/04 01:30:20;;;;;;;2.30;2.10;;;19.20;99.90;;;;;;5019878;28;20033;-72
2022/09/04 01:33:08;;;;;;;2.10;2.00;;;19.30;99.90;;;;;;5037367;28;20017;-72
2022/09/04 01:35:57;;;;;;;2.60;2.40;;;19.30;99.90;;;;;;5036945;28;20032;-73
2022/09/04 01:38:38;;;;;;;1.98;1.85;;;19.30;99.90;;;;;;5036965;28;20108;-73
2022/09/04 01:41:17;;;;;;;1.90;1.80;;;19.30;99.90;;;;;;5036903;28;20025;-71
2022/09/04 01:43:43;;;;;;;1.90;1.80;;;19.30;99.90;;;;;;5036789;28;20018;-72
2022/09/04 01:46:32;;;;;;;1.63;1.52;;;19.30;99.90;;;;;;5019014;28;20431;-71
2022/09/04 01:49:26;;;;;;;2.17;2.08;;;19.30;99.90;;;;;;5018933;28;20033;-71
2022/09/04 01:52:16;;;;;;;2.45;2.25;;;19.30;99.90;;;;;;5036612;28;20108;-70
2022/09/04 01:54:48;;;;;;;3.08;2.30;;;19.30;99.90;;;;;;5018670;28;20487;-72
2022/09/04 01:57:34;;;;;;;2.03;1.90;;;19.30;99.90;;;;;;5036535;28;20052;-73
2022/09/04 02:00:00;;;;;;;2.80;2.60;;;19.20;99.90;;;;;;5036543;28;20079;-69
2022/09/04 02:02:38;;;;;;;4.57;3.63;;;19.20;99.90;;;;;;5036649;28;20532;-69
2022/09/04 02:05:34;;;;;;;2.97;2.70;;;19.20;99.90;;;;;;5036436;28;20075;-72
2022/09/04 02:08:09;;;;;;;2.67;2.47;;;19.10;99.90;;;;;;5036361;28;20030;-70
2022/09/04 02:10:51;;;;;;;2.22;2.10;;;19.00;99.90;;;;;;5036293;28;20039;-72
2022/09/04 02:13:39;;;;;;;2.88;2.28;;;19.10;99.90;;;;;;5036189;28;20379;-69
2022/09/04 02:16:42;;;;;;;4.18;2.92;;;19.10;99.90;;;;;;5036248;28;20041;-71
2022/09/04 02:19:35;;;;;;;2.60;2.40;;;19.10;99.90;;;;;;5036194;28;20025;-69
2022/09/04 02:22:55;;;;;;;3.70;3.17;;;19.00;99.90;;;;;;5036168;28;20025;-70
2022/09/04 02:25:39;;;;;;;3.53;3.22;;;19.00;99.90;;;;;;5014640;28;20044;-69
2022/09/04 02:28:27;;;;;;;3.67;2.88;;;18.90;99.90;;;;;;5036095;28;20057;-71
2022/09/04 02:31:01;;;;;;;3.17;2.47;;;18.90;99.90;;;;;;5035891;28;20029;-71
2022/09/04 02:33:34;;;;;;;2.20;2.08;;;18.90;99.90;;;;;;5035618;28;20051;-71
2022/09/04 02:36:08;;;;;;;2.33;2.13;;;18.90;99.90;;;;;;5018238;28;20044;-72
2022/09/04 02:39:04;;;;;;;2.60;2.40;;;19.00;99.90;;;;;;5035804;28;20021;-72
2022/09/04 02:41:49;;;;;;;2.38;2.00;;;19.10;99.90;;;;;;5035664;28;20090;-70
2022/09/04 02:44:59;;;;;;;2.08;1.90;;;19.10;99.90;;;;;;5035785;28;20025;-70
2022/09/04 02:47:47;;;;;;;2.13;1.92;;;19.10;99.90;;;;;;5035531;28;20093;-72
2022/09/04 02:50:31;;;;;;;2.08;1.90;;;19.10;99.90;;;;;;5035656;28;20036;-70
2022/09/04 02:53:15;;;;;;;;;;;19.10;99.90;;;;;;5035952;28;20100;-70
2022/09/04 02:56:08;;;;;;;3.20;2.10;;;19.10;99.90;;;;;;5035225;28;20291;-72
2022/09/04 02:58:52;;;;;;;2.85;2.50;;;19.10;99.90;;;;;;5035480;28;20092;-68
2022/09/04 03:01:36;;;;;;;2.67;2.05;;;19.10;99.90;;;;;;5035273;28;20017;-71
2022/09/04 03:04:11;;;;;;;3.67;2.13;;;19.00;99.90;;;;;;5017551;28;20364;-69
2022/09/04 03:06:51;;;;;;;1.92;1.80;;;19.10;99.90;;;;;;5035398;28;20025;-69
2022/09/04 03:09:28;;;;;;;1.88;1.77;;;19.00;99.90;;;;;;5035205;28;20018;-71
2022/09/04 03:12:10;;;;;;;1.98;1.88;;;19.10;99.90;;;;;;5035364;28;20480;-70
2022/09/04 03:14:47;;;;;;;1.40;1.30;;;19.10;99.90;;;;;;5035157;28;20543;-71
2022/09/04 03:17:48;;;;;;;2.25;2.10;;;19.10;99.90;;;;;;5017310;28;20053;-72
2022/09/04 03:20:20;;;;;;;1.65;1.55;;;19.00;99.90;;;;;;5035070;28;20386;-69
2022/09/04 03:23:43;;;;;;;2.58;2.38;;;19.10;99.90;;;;;;5035046;28;20029;-70
2022/09/04 03:26:26;;;;;;;2.15;1.95;;;19.10;99.90;;;;;;4935727;29;20035;-71
2022/09/04 03:29:13;;;;;;;2.05;1.85;;;19.10;99.90;;;;;;4935697;29;20083;-72
2022/09/04 03:31:39;;;;;;;2.00;1.90;;;19.10;99.90;;;;;;5020785;28;20555;-73
2022/09/04 03:34:19;;;;;;;2.58;2.38;;;19.10;99.90;;;;;;5034737;28;20131;-71
2022/09/04 03:37:30;;;;;;;2.78;2.55;;;19.10;99.90;;;;;;5034785;28;20053;-70
2022/09/04 03:40:10;;;;;;;3.55;2.65;;;19.00;99.90;;;;;;5021696;28;20496;-69
2022/09/04 03:42:48;;;;;;;2.72;2.53;;;18.90;99.90;;;;;;5034833;28;20029;-69
2022/09/04 03:45:30;;;;;;;2.25;2.05;;;18.90;99.90;;;;;;5016046;28;20388;-69
2022/09/04 03:48:36;;;;;;;2.35;2.15;;;18.90;99.90;;;;;;5034511;28;20021;-70
2022/09/04 03:51:01;;;;;;;3.00;2.80;;;19.00;99.90;;;;;;5016877;28;20445;-70
2022/09/04 03:53:39;;;;;;;2.53;2.33;;;19.00;99.90;;;;;;5034350;28;20101;-73
2022/09/04 03:56:14;;;;;;;2.65;2.45;;;19.00;99.90;;;;;;5034167;28;20569;-71
2022/09/04 03:59:23;;;;;;;4.20;2.55;;;19.00;99.90;;;;;;5016652;28;20021;-71
2022/09/04 04:02:15;;;;;;;3.90;2.58;;;19.00;99.90;;;;;;5034156;28;20021;-72
2022/09/04 04:05:11;;;;;;;3.00;2.80;;;18.90;99.90;;;;;;5016932;28;20065;-72
2022/09/04 04:07:58;;;;;;;2.75;2.55;;;18.90;99.90;;;;;;5016379;28;20500;-69
2022/09/04 04:11:05;;;;;;;2.10;2.00;;;18.80;99.90;;;;;;5034095;28;20494;-70
2022/09/04 04:14:07;;;;;;;3.50;2.40;;;18.80;99.90;;;;;;5033955;28;20108;-72
2022/09/04 04:16:41;;;;;;;2.63;2.35;;;18.90;99.90;;;;;;5034191;28;20072;-70
2022/09/04 04:19:39;;;;;;;2.20;2.03;;;18.80;99.90;;;;;;5016100;28;20021;-71
2022/09/04 04:22:19;;;;;;;1.95;1.85;;;18.90;99.90;;;;;;5033948;28;20029;-73
2022/09/04 04:24:54;;;;;;;2.70;2.20;;;18.90;99.90;;;;;;5033993;28;20018;-71
2022/09/04 04:27:25;;;;;;;2.13;1.90;;;18.90;99.90;;;;;;5033769;28;20036;-72
2022/09/04 04:30:20;;;;;;;2.42;2.22;;;19.00;99.90;;;;;;5033763;28;20026;-71
2022/09/04 04:32:57;;;;;;;2.13;1.92;;;19.00;99.90;;;;;;5012786;28;20116;-69
2022/09/04 04:35:43;;;;;;;2.45;2.25;;;19.00;99.90;;;;;;5033583;28;20029;-71
2022/09/04 04:38:24;;;;;;;1.75;1.65;;;19.00;99.90;;;;;;5016110;28;20152;-70
2022/09/04 04:41:08;;;;;;;2.00;1.80;;;19.00;99.90;;;;;;5033680;28;20024;-72
2022/09/04 04:43:54;;;;;;;2.03;1.90;;;19.10;99.90;;;;;;5033551;28;20087;-69
2022/09/04 04:46:39;;;;;;;2.40;2.08;;;19.10;99.90;;;;;;5033676;28;20087;-72
2022/09/04 04:49:27;;;;;;;2.67;2.03;;;19.10;99.90;;;;;;5033548;28;20021;-72
2022/09/04 04:52:06;;;;;;;2.15;2.05;;;19.20;99.90;;;;;;5015810;28;20072;-69
2022/09/04 04:55:37;;;;;;;4.47;3.33;;;19.10;99.90;;;;;;5015650;28;20543;-71
2022/09/04 04:58:06;;;;;;;4.07;3.13;;;19.10;99.90;;;;;;4931330;29;20054;-72
2022/09/04 05:01:05;;;;;;;3.00;2.80;;;19.10;99.90;;;;;;4934327;29;20431;-70
2022/09/04 05:03:55;;;;;;;3.03;2.83;;;19.10;99.90;;;;;;4993506;28;20480;-71
2022/09/04 05:06:35;;;;;;;2.83;2.63;;;19.20;99.90;;;;;;5033263;28;20050;-72
2022/09/04 05:09:33;;;;;;;2.50;2.30;;;19.20;99.90;;;;;;5033316;28;20072;-71
2022/09/04 05:12:09;;;;;;;2.80;2.60;;;19.20;99.90;;;;;;5033483;28;20037;-71
2022/09/04 05:14:49;;;;;;;2.35;2.15;;;19.30;99.90;;;;;;5033322;28;20029;-72
2022/09/04 05:17:36;;;;;;;2.40;2.25;;;19.30;99.90;;;;;;5015386;28;20025;-72
2022/09/04 05:20:22;;;;;;;2.30;2.10;;;19.30;99.90;;;;;;5033332;28;20021;-71
2022/09/04 05:23:12;;;;;;;2.17;1.98;;;19.30;99.90;;;;;;5033426;28;20032;-70
2022/09/04 05:26:16;;;;;;;2.22;1.92;;;19.40;99.90;;;;;;5033088;28;20026;-73
2022/09/04 05:28:57;;;;;;;2.08;1.98;;;19.40;99.90;;;;;;5032556;28;20061;-71
2022/09/04 05:31:48;;;;;;;2.00;1.90;;;19.40;99.90;;;;;;5032874;28;20029;-69
2022/09/04 05:35:04;;;;;;;2.22;1.83;;;19.50;99.90;;;;;;5033107;28;20059;-70
2022/09/04 05:37:54;;;;;;;1.98;1.88;;;19.50;99.90;;;;;;4933906;29;20063;-69
2022/09/04 05:40:29;;;;;;;2.42;2.22;;;19.60;99.90;;;;;;4933794;29;20027;-69
2022/09/04 05:43:01;;;;;;;2.35;2.20;;;19.60;99.90;;;;;;5011370;28;20061;-71
2022/09/04 05:45:48;;;;;;;2.10;2.00;;;19.70;99.90;;;;;;5032962;28;20071;-71
2022/09/04 05:48:48;;;;;;;2.00;1.90;;;19.70;99.90;;;;;;5032915;28;20104;-73
2022/09/04 05:51:59;;;;;;;2.63;2.42;;;19.80;99.90;;;;;;5019478;28;20048;-71
2022/09/04 05:54:37;;;;;;;2.88;2.25;;;19.80;99.90;;;;;;5015234;28;20116;-68
2022/09/04 05:57:16;;;;;;;3.30;2.30;;;19.90;99.90;;;;;;5032949;28;20499;-69
2022/09/04 06:00:01;;;;;;;3.03;2.83;;;19.90;99.90;;;;;;5032841;28;20067;-70
2022/09/04 06:02:38;;;;;;;3.08;2.72;;;20.00;99.90;;;;;;5033060;28;20037;-72
2022/09/04 06:05:45;;;;;;;2.70;2.50;;;20.00;99.90;;;;;;5032854;28;20021;-69
2022/09/04 06:08:50;;;;;;;2.55;2.35;;;20.10;99.90;;;;;;5032592;28;20450;-71
2022/09/04 06:11:44;;;;;;;2.83;2.63;;;20.10;99.90;;;;;;5036201;28;20032;-71
2022/09/04 06:14:10;;;;;;;3.42;2.97;;;20.10;99.90;;;;;;4948922;28;20112;-69
2022/09/04 06:17:20;;;;;;;2.50;2.30;;;20.20;99.90;;;;;;5018573;28;20021;-69
2022/09/04 06:20:04;;;;;;;2.78;2.58;;;20.20;99.90;;;;;;5036508;28;20017;-71
2022/09/04 06:22:48;;;;;;;;;;;20.20;99.90;;;;;;5036722;28;20078;-70
2022/09/04 06:25:32;;;;;;;;;;;20.30;99.90;;;;;;5036611;28;20310;-70
2022/09/04 06:27:58;;;;;;;;;;;20.40;99.90;;;;;;5036410;28;19905;-71
2022/09/04 06:30:27;;;;;;;2.75;2.55;;;20.60;99.90;;;;;;5035854;28;19911;-71
2022/09/04 06:33:30;;;;;;;4.70;4.10;;;20.80;99.90;;;;;;5018196;28;20026;-72
2022/09/04 06:36:21;;;;;;;3.50;3.17;;;21.10;99.90;;;;;;5035880;28;20461;-69
2022/09/04 06:39:15;;;;;;;3.10;2.80;;;21.20;99.90;;;;;;5035878;28;20025;-72
2022/09/04 06:42:06;;;;;;;3.60;3.30;;;21.20;99.90;;;;;;5035750;28;20029;-70
2022/09/04 06:44:53;;;;;;;2.97;2.78;;;21.30;99.90;;;;;;5035894;28;20152;-69
2022/09/04 06:47:32;;;;;;;3.30;3.00;;;21.40;99.90;;;;;;5017833;28;20022;-72
2022/09/04 06:50:09;;;;;;;3.40;2.90;;;21.70;99.90;;;;;;5035617;28;20045;-72
2022/09/04 06:52:48;;;;;;;2.85;2.65;;;21.80;99.90;;;;;;5035653;28;20033;-69
2022/09/04 06:55:25;;;;;;;2.70;2.50;;;21.90;99.90;;;;;;5035333;28;20041;-72
2022/09/04 06:58:32;;;;;;;3.17;2.97;;;21.90;99.90;;;;;;5017713;28;20108;-72
2022/09/04 07:01:07;;;;;;;3.28;3.05;;;21.90;99.90;;;;;;5035254;28;20443;-71
2022/09/04 07:03:48;;;;;;;3.03;2.83;;;22.00;99.90;;;;;;5035266;28;20018;-72
2022/09/04 07:06:37;;;;;;;3.28;3.00;;;22.00;99.90;;;;;;5035421;28;20022;-72
2022/09/04 07:09:26;;;;;;;2.92;2.72;;;22.00;99.90;;;;;;5007195;28;20033;-69
2022/09/04 07:12:18;;;;;;;2.78;2.58;;;21.80;99.90;;;;;;5035390;28;20045;-72
2022/09/04 07:15:10;;;;;;;2.70;2.55;;;21.80;99.90;;;;;;4997062;28;20045;-70
2022/09/04 07:18:07;;;;;;;4.15;2.60;;;21.70;99.90;;;;;;5034957;28;20033;-69
2022/09/04 07:21:01;;;;;;;3.65;2.90;;;21.80;99.90;;;;;;5016263;28;20033;-72
2022/09/04 07:23:34;;;;;;;2.70;2.50;;;21.80;99.90;;;;;;5034638;28;20029;-72
2022/09/04 07:26:28;;;;;;;3.30;3.00;;;21.80;99.90;;;;;;5017236;28;20033;-69
2022/09/04 07:29:09;;;;;;;2.90;2.70;;;21.80;99.90;;;;;;5017155;28;20026;-71
2022/09/04 07:31:40;;;;;;;3.38;3.05;;;22.00;99.90;;;;;;5034663;28;20030;-71
2022/09/04 07:34:15;;;;;;;3.25;2.90;;;22.00;99.90;;;;;;5034812;28;20020;-72
2022/09/04 07:36:56;;;;;;;3.55;3.25;;;22.00;99.90;;;;;;5034737;28;20075;-70
2022/09/04 07:39:46;;;;;;;4.47;4.05;;;22.00;99.90;;;;;;5034852;28;20415;-68
2022/09/04 07:42:27;;;;;;;4.30;3.90;;;21.80;99.90;;;;;;5034634;28;20033;-72
2022/09/04 07:44:58;;;;;;;3.53;3.33;;;21.70;99.90;;;;;;5034548;28;20096;-70
2022/09/04 07:47:37;;;;;;;3.33;3.03;;;21.70;99.90;;;;;;5034470;28;20104;-71
2022/09/04 07:50:23;;;;;;;3.10;2.90;;;21.80;99.90;;;;;;5034712;28;20383;-71
2022/09/04 07:53:13;;;;;;;3.60;3.00;;;21.90;99.90;;;;;;5016703;28;20167;-69
2022/09/04 07:55:48;;;;;;;3.55;2.85;;;21.90;99.90;;;;;;5034225;28;20518;-69
2022/09/04 07:58:32;;;;;;;3.78;3.47;;;22.00;99.90;;;;;;5034350;28;20052;-70
2022/09/04 08:01:15;;;;;;;4.63;3.10;;;22.10;99.90;;;;;;5034300;28;20097;-72
2022/09/04 08:03:41;;;;;;;;;;;22.20;99.90;;;;;;5034589;28;20053;-69
2022/09/04 08:06:40;;;;;;;3.80;3.50;;;22.30;99.90;;;;;;5034223;28;20379;-71
2022/09/04 08:09:28;;;;;;;5.10;4.70;;;22.50;99.90;;;;;;4980084;28;20033;-72
2022/09/04 08:12:13;;;;;;;5.45;4.95;;;22.60;99.90;;;;;;5033962;28;20036;-71
2022/09/04 08:15:02;;;;;;;6.43;4.95;;;22.70;99.90;;;;;;5034208;28;20032;-73
2022/09/04 08:17:44;;;;;;;6.07;5.57;;;22.60;99.90;;;;;;5033784;28;20379;-68
2022/09/04 08:20:13;;;;;;;5.55;5.00;;;22.50;99.90;;;;;;5033915;28;20033;-72
2022/09/04 08:22:44;;;;;;;5.05;4.63;;;22.60;99.90;;;;;;5033925;28;20026;-69
2022/09/04 08:25:22;;;;;;;5.82;4.93;;;22.70;99.90;;;;;;5033940;28;20025;-69
2022/09/04 08:28:10;;;;;;;5.25;4.75;;;22.80;99.90;;;;;;5033795;28;20026;-69
2022/09/04 08:30:46;;;;;;;6.75;5.32;;;22.80;99.90;;;;;;5015963;28;20017;-71
2022/09/04 08:33:39;;;;;;;5.00;4.40;;;22.80;99.90;;;;;;5033474;28;20025;-73
2022/09/04 08:36:14;;;;;;;4.88;4.47;;;23.00;99.90;;;;;;5033880;28;20430;-70
2022/09/04 08:38:57;;;;;;;4.35;3.95;;;23.10;99.90;;;;;;5033787;28;20048;-70
2022/09/04 08:41:38;;;;;;;4.20;3.80;;;23.30;99.90;;;;;;5033537;28;20040;-69
2022/09/04 08:44:27;;;;;;;4.15;3.85;;;23.40;99.90;;;;;;5016489;28;20433;-70
2022/09/04 08:47:09;;;;;;;5.60;5.10;;;23.50;99.90;;;;;;5033600;28;20017;-71
2022/09/04 08:49:56;;;;;;;5.10;3.90;;;23.60;99.90;;;;;;5033442;28;20022;-72
2022/09/04 08:53:07;;;;;;;4.70;4.40;;;23.60;99.90;;;;;;5033404;28;20419;-72
2022/09/04 08:56:14;;;;;;;4.18;3.85;;;23.70;99.90;;;;;;5022654;28;20045;-71
2022/09/04 08:58:43;;;;;;;4.68;4.28;;;23.70;99.90;;;;;;5033531;28;20483;-71
2022/09/04 09:02:02;;;;;;;4.43;4.13;;;23.80;99.90;;;;;;5033727;28;20029;-72
2022/09/04 09:05:14;;;;;;;7.20;5.80;;;24.00;99.90;;;;;;5015655;28;20029;-72
2022/09/04 09:08:05;;;;;;;5.35;4.90;;;24.30;99.90;;;;;;5015934;28;20459;-72
2022/09/04 09:11:06;;;;;;;4.55;4.15;;;24.60;99.90;;;;;;5033190;28;20061;-70
2022/09/04 09:14:01;;;;;;;6.05;4.80;;;25.00;99.90;;;;;;5033106;28;20025;-70
2022/09/04 09:16:42;;;;;;;4.60;4.20;;;25.10;99.90;;;;;;5033303;28;20025;-69
2022/09/04 09:19:12;;;;;;;4.05;3.75;;;25.00;99.90;;;;;;5033172;28;20456;-70
2022/09/04 09:21:51;;;;;;;4.82;4.30;;;25.00;99.90;;;;;;5015436;28;20041;-70
2022/09/04 09:24:31;;;;;;;4.43;4.03;;;25.10;99.90;;;;;;5033372;28;20030;-69
2022/09/04 09:27:14;;;;;;;4.78;4.38;;;25.30;99.90;;;;;;5033231;28;20018;-71
2022/09/04 09:29:49;;;;;;;4.65;4.15;;;25.50;99.90;;;;;;5033029;28;20491;-72
2022/09/04 09:32:30;;;;;;;4.68;4.05;;;25.70;99.90;;;;;;5033040;28;20034;-70
2022/09/04 09:35:21;;;;;;;5.15;4.20;;;26.00;99.90;;;;;;5015335;28;20112;-70
2022/09/04 09:38:14;;;;;;;4.35;3.95;;;26.20;99.90;;;;;;5033241;28;20372;-70
2022/09/04 09:41:27;;;;;;;3.70;3.17;;;26.40;99.90;;;;;;5033060;28;20032;-69
2022/09/04 09:44:11;;;;;;;6.13;4.47;;;26.50;99.90;;;;;;5025282;28;20275;-69
2022/09/04 09:47:14;;;;;;;6.50;4.40;;;26.40;99.70;;;;;;5036713;28;20071;-73
2022/09/04 09:50:18;;;;;;;5.80;4.55;;;26.30;99.90;;;;;;5036676;28;20105;-72
2022/09/04 09:52:47;;;;;;;5.72;4.43;;;26.20;99.90;;;;;;5036627;28;20041;-71
2022/09/04 09:55:25;;;;;;;5.22;4.68;;;26.30;99.90;;;;;;5036685;28;20116;-70
2022/09/04 09:58:22;;;;;;;4.90;4.30;;;26.30;99.90;;;;;;5036584;28;20055;-69
2022/09/04 10:01:06;;;;;;;4.60;4.13;;;26.50;99.90;;;;;;5036639;28;20017;-71
2022/09/04 10:03:45;;;;;;;4.85;4.30;;;26.60;99.90;;;;;;5036497;28;20022;-71
2022/09/04 10:06:13;;;;;;;5.78;4.53;;;26.80;99.10;;;;;;5036679;28;20022;-70
2022/09/04 10:08:57;;;;;;;5.32;4.40;;;27.10;99.90;;;;;;5036426;28;20440;-72
2022/09/04 10:11:50;;;;;;;4.03;3.70;;;27.40;98.60;;;;;;5036195;28;20120;-71
2022/09/04 10:14:34;;;;;;;4.50;4.10;;;27.90;97.70;;;;;;5036327;28;20502;-72
2022/09/04 10:17:34;;;;;;;5.97;5.10;;;28.40;97.30;;;;;;5036196;28;20426;-70
2022/09/04 10:20:39;;;;;;;4.80;4.38;;;28.50;94.90;;;;;;5036182;28;20025;-71
2022/09/04 10:23:04;;;;;;;5.68;4.80;;;28.30;94.80;;;;;;5036104;28;20040;-72
2022/09/04 10:25:56;;;;;;;6.35;5.00;;;28.10;96.00;;;;;;5035993;28;20025;-72
2022/09/04 10:28:40;;;;;;;5.53;4.93;;;27.90;94.90;;;;;;5018286;28;20591;-70
2022/09/04 10:31:27;;;;;;;5.07;4.57;;;27.80;94.50;;;;;;5018214;28;20037;-71
2022/09/04 10:33:56;;;;;;;5.18;4.57;;;27.70;95.00;;;;;;5036133;28;20028;-73
2022/09/04 10:36:59;;;;;;;4.60;4.20;;;27.50;95.00;;;;;;5035891;28;20056;-70
2022/09/04 10:42:39;;;;;;;4.95;4.28;;;27.50;93.80;;;;;;5035826;28;20036;-70
2022/09/04 10:45:26;;;;;;;5.65;4.80;;;27.70;95.40;;;;;;5018032;28;20392;-72
2022/09/04 10:48:11;;;;;;;5.28;4.53;;;28.20;95.00;;;;;;5018095;28;20021;-72
2022/09/04 10:51:04;;;;;;;4.28;3.85;;;28.50;93.00;;;;;;5036062;28;20021;-69
2022/09/04 10:54:06;;;;;;;4.20;3.70;;;28.80;91.70;;;;;;5035498;28;20094;-69
2022/09/04 10:57:03;;;;;;;4.18;3.88;;;28.90;91.80;;;;;;5035541;28;20108;-71
2022/09/04 10:59:59;;;;;;;5.32;4.65;;;28.90;91.50;;;;;;4949815;28;20577;-69
2022/09/04 11:02:49;;;;;;;6.78;5.60;;;28.20;91.10;;;;;;5035409;28;20033;-72
2022/09/04 11:05:34;;;;;;;5.80;5.30;;;28.10;92.10;;;;;;5035390;28;20037;-71
2022/09/04 11:08:04;;;;;;;5.72;5.07;;;28.20;93.80;;;;;;5035278;28;20026;-72
2022/09/04 11:11:01;;;;;;;5.35;4.82;;;28.40;92.40;;;;;;5035195;28;20044;-72
2022/09/04 11:13:55;;;;;;;4.72;4.32;;;28.60;92.10;;;;;;5035071;28;20029;-72
2022/09/04 11:16:49;;;;;;;5.10;4.70;;;28.90;91.40;;;;;;5035104;28;20075;-70
2022/09/04 11:19:42;;;;;;;5.13;4.68;;;29.50;91.40;;;;;;4947817;28;20043;-72
2022/09/04 11:22:45;;;;;;;5.20;4.70;;;29.70;91.70;;;;;;5017304;28;20060;-72
2022/09/04 11:25:10;;;;;;;;;;;29.80;89.50;;;;;;5035388;28;20014;-70
2022/09/04 11:28:19;;;;;;;5.82;5.22;;;29.60;91.10;;;;;;5034846;28;20373;-71
2022/09/04 11:31:03;;;;;;;5.18;4.72;;;29.60;89.70;;;;;;5034864;28;20026;-71
2022/09/04 11:33:47;;;;;;;6.35;5.72;;;30.00;89.60;;;;;;5034739;28;20013;-70
2022/09/04 11:36:34;;;;;;;5.53;5.13;;;29.80;87.80;;;;;;5034967;28;20064;-70
2022/09/04 11:39:29;;;;;;;5.32;4.82;;;29.60;89.70;;;;;;5034793;28;20060;-72
2022/09/04 11:41:58;;;;;;;5.05;4.65;;;29.50;87.20;;;;;;5013929;28;20499;-72
2022/09/04 11:44:45;;;;;;;5.53;5.03;;;29.20;89.50;;;;;;5034738;28;20025;-70
2022/09/04 11:47:58;;;;;;;5.72;5.32;;;29.20;90.30;;;;;;5034541;28;20483;-71
2022/09/04 11:50:41;;;;;;;5.38;4.97;;;28.80;89.30;;;;;;4990964;28;20029;-70
2022/09/04 11:53:42;;;;;;;4.93;4.53;;;29.00;91.00;;;;;;5034578;28;20474;-72
2022/09/04 11:56:32;;;;;;;7.07;6.38;;;29.10;89.80;;;;;;5034188;28;20071;-71
2022/09/04 11:59:20;;;;;;;7.35;6.38;;;29.10;91.50;;;;;;5034361;28;20072;-72
2022/09/04 12:02:00;;;;;;;6.53;5.95;;;28.90;90.40;;;;;;5034293;28;20021;-71
2022/09/04 12:04:40;;;;;;;7.35;6.45;;;28.80;91.70;;;;;;5016662;28;20063;-69
2022/09/04 12:07:11;;;;;;;7.03;6.30;;;28.80;93.00;;;;;;5033615;28;20433;-71
2022/09/04 12:10:05;;;;;;;6.90;6.25;;;28.90;92.00;;;;;;5034091;28;20026;-70
2022/09/04 12:12:40;;;;;;;6.22;5.72;;;28.90;91.40;;;;;;5034171;28;20482;-72
2022/09/04 12:15:34;;;;;;;8.00;6.78;;;29.00;90.90;;;;;;5016393;28;20087;-71
2022/09/04 12:18:32;;;;;;;7.13;6.53;;;28.90;90.80;;;;;;5007256;28;20380;-71
2022/09/04 12:21:18;;;;;;;5.75;5.20;;;28.60;92.40;;;;;;5016290;28;20029;-71
2022/09/04 12:23:50;;;;;;;4.85;4.53;;;28.50;91.80;;;;;;5016133;28;20028;-70
2022/09/04 12:26:32;;;;;;;4.47;3.67;;;28.30;91.10;;;;;;5033818;28;20028;-72
2022/09/04 12:29:16;;;;;;;4.18;3.78;;;28.20;90.70;;;;;;5033887;28;20032;-71
2022/09/04 12:32:10;;;;;;;3.47;3.17;;;28.10;91.00;;;;;;5033623;28;20037;-72
2022/09/04 12:35:12;;;;;;;3.70;3.40;;;27.90;91.70;;;;;;5033884;28;20028;-71
2022/09/04 12:38:14;;;;;;;4.20;3.80;;;27.70;92.20;;;;;;5020551;28;20116;-69
2022/09/04 12:40:51;;;;;;;3.75;3.45;;;27.50;92.80;;;;;;5015938;28;20570;-71
2022/09/04 12:43:51;;;;;;;4.40;4.00;;;27.30;93.40;;;;;;5033586;28;20495;-69
2022/09/04 12:46:49;;;;;;;3.78;3.47;;;27.20;93.90;;;;;;5033642;28;20510;-70
2022/09/04 12:49:17;;;;;;;4.20;3.80;;;27.10;94.20;;;;;;5033503;28;20026;-73
2022/09/04 12:52:09;;;;;;;4.38;4.07;;;27.00;95.40;;;;;;5033376;28;20028;-72
2022/09/04 12:55:16;;;;;;;5.93;5.50;;;26.90;96.20;;;;;;4995345;28;20487;-70
2022/09/04 12:58:01;;;;;;;5.15;4.50;;;26.60;96.10;;;;;;5015402;28;20026;-70
2022/09/04 13:00:39;;;;;;;6.25;5.20;;;26.50;96.80;;;;;;5033410;28;20525;-71
2022/09/04 13:03:32;;;;;;;6.25;5.20;;;26.20;96.10;;;;;;5033411;28;20022;-71
2022/09/04 13:06:34;;;;;;;5.63;5.07;;;26.00;96.70;;;;;;5033426;28;20022;-69
2022/09/04 13:09:24;;;;;;;5.50;5.00;;;26.10;96.90;;;;;;5033279;28;20025;-69
2022/09/04 13:12:09;;;;;;;5.30;4.80;;;26.20;97.30;;;;;;5033233;28;20040;-72
2022/09/04 13:14:53;;;;;;;5.93;5.45;;;26.30;98.40;;;;;;5033221;28;20033;-72
2022/09/04 13:17:50;;;;;;;5.30;4.82;;;26.40;97.40;;;;;;5033097;28;20108;-72
2022/09/04 13:20:39;;;;;;;5.38;4.97;;;26.30;97.80;;;;;;5037241;28;20024;-72
2022/09/04 13:23:23;;;;;;;5.32;4.90;;;26.40;98.20;;;;;;5037637;28;20026;-71
2022/09/04 13:26:20;;;;;;;5.13;4.72;;;26.50;97.80;;;;;;5037264;28;20021;-71
2022/09/04 13:28:46;;;;;;;6.82;6.15;;;26.50;97.50;;;;;;5032105;28;20398;-69
2022/09/04 13:31:18;;;;;;;5.82;5.32;;;26.60;97.30;;;;;;5037062;28;20138;-71
2022/09/04 13:33:53;;;;;;;6.45;5.95;;;26.60;97.90;;;;;;5037274;28;20467;-72
2022/09/04 13:36:53;;;;;;;5.95;5.50;;;26.50;97.90;;;;;;5036975;28;20075;-70
2022/09/04 13:39:54;;;;;;;6.50;6.00;;;26.50;98.20;;;;;;5036944;28;20103;-72
2022/09/04 13:42:32;;;;;;;6.90;6.30;;;26.40;98.80;;;;;;5037142;28;20052;-71
2022/09/04 13:45:22;;;;;;;7.20;6.55;;;26.20;99.30;;;;;;5019181;28;20420;-71
2022/09/04 13:48:12;;;;;;;7.35;6.68;;;26.20;99.70;;;;;;5019089;28;20037;-73
2022/09/04 13:50:54;;;;;;;7.00;6.40;;;26.10;99.90;;;;;;5018947;28;20435;-71
2022/09/04 13:53:35;;;;;;;7.00;6.40;;;26.00;99.90;;;;;;5036657;28;20029;-72
2022/09/04 13:56:11;;;;;;;6.63;6.03;;;25.90;99.90;;;;;;5018891;28;20054;-69
2022/09/04 13:58:48;;;;;;;6.63;6.03;;;26.00;99.90;;;;;;5036624;28;20014;-72
2022/09/04 14:01:20;;;;;;;7.13;6.50;;;26.10;99.90;;;;;;5036607;28;20096;-72
2022/09/04 14:03:52;;;;;;;7.57;6.97;;;25.90;99.90;;;;;;5003272;28;20483;-70
2022/09/04 14:06:21;;;;;;;7.22;6.63;;;25.90;99.90;;;;;;5019243;28;20075;-71
2022/09/04 14:08:49;;;;;;;8.40;7.70;;;25.80;99.90;;;;;;5036606;28;20013;-70
2022/09/04 14:11:40;;;;;;;8.30;7.70;;;25.60;99.90;;;;;;5036329;28;20467;-71
2022/09/04 14:14:29;;;;;;;8.80;7.97;;;25.50;99.90;;;;;;5018603;28;20035;-73
2022/09/04 14:16:57;;;;;;;8.18;7.53;;;25.60;99.90;;;;;;5036271;28;20127;-71
2022/09/04 14:19:52;;;;;;;9.23;8.43;;;25.70;99.90;;;;;;5036096;28;20022;-71
2022/09/04 14:22:30;;;;;;;8.45;7.80;;;25.50;99.90;;;;;;5036115;28;20025;-71
2022/09/04 14:25:05;;;;;;;8.55;7.95;;;25.40;99.90;;;;;;5036090;28;20032;-70
2022/09/04 14:28:17;;;;;;;6.93;6.32;;;25.40;99.90;;;;;;5035993;28;20025;-70
2022/09/04 14:30:48;;;;;;;8.25;7.65;;;25.50;99.90;;;;;;5011330;28;20040;-70